Time;durP1;ratioP1;P1;durP2;ratioP2;P2;SDS_P1;SDS_P2;PMS_P1;PMS_P2;Temp;Humidity;BMP_temperature;BMP_pressure;BME280_temperature;BME280_humidity;BME280_pressure;Samples;Min_cycle;Max_cycle;Signal;HPM_P1;HPM_P2
2023/08/03 00:00:06;;;;;;;4.07;3.97;;;18.50;99.90;;;;;;4950454;29;20464;-58
2023/08/03 00:02:35;;;;;;;4.20;3.90;;;18.40;99.90;;;;;;4935758;29;20182;-58
2023/08/03 00:05:04;;;;;;;4.77;4.37;;;18.40;99.90;;;;;;4940947;29;20929;-58
2023/08/03 00:07:31;;;;;;;3.70;3.60;;;18.50;99.90;;;;;;4954834;28;20544;-58
2023/08/03 00:09:57;;;;;;;4.20;4.00;;;18.40;99.90;;;;;;4952225;28;20440;-58
2023/08/03 00:12:23;;;;;;;4.40;4.00;;;18.40;99.90;;;;;;4940620;29;20428;-58
2023/08/03 00:14:50;;;;;;;3.30;3.20;;;18.40;99.90;;;;;;4955229;28;20209;-58
2023/08/03 00:17:15;;;;;;;3.67;3.50;;;18.40;99.90;;;;;;4954959;29;20320;-58
2023/08/03 00:19:41;;;;;;;3.70;3.50;;;18.50;99.90;;;;;;4953723;29;20515;-58
2023/08/03 00:22:08;;;;;;;4.00;3.80;;;18.50;99.90;;;;;;4954550;29;20432;-58
2023/08/03 00:24:35;;;;;;;4.23;3.90;;;18.40;99.90;;;;;;4954475;29;20495;-58
2023/08/03 00:27:01;;;;;;;3.80;3.70;;;18.50;99.90;;;;;;4959992;28;20908;-58
2023/08/03 00:29:27;;;;;;;4.90;4.70;;;18.50;99.90;;;;;;4972719;28;20440;-58
2023/08/03 00:31:53;;;;;;;4.87;4.57;;;18.50;99.90;;;;;;4974597;28;20187;-58
2023/08/03 00:34:18;;;;;;;4.33;4.03;;;18.40;99.90;;;;;;4973120;28;20211;-58
2023/08/03 00:36:44;;;;;;;4.10;4.00;;;18.40;99.90;;;;;;4973292;28;20691;-58
2023/08/03 00:39:10;;;;;;;4.30;4.10;;;18.40;99.90;;;;;;4972024;28;20624;-58
2023/08/03 00:41:36;;;;;;;4.77;4.50;;;18.30;99.90;;;;;;4972886;28;20188;-58
2023/08/03 00:44:01;;;;;;;4.00;3.70;;;18.30;99.90;;;;;;4971809;28;20188;-58
2023/08/03 00:46:27;;;;;;;3.90;3.70;;;18.30;99.90;;;;;;4973272;28;20268;-58
2023/08/03 00:48:53;;;;;;;4.57;4.27;;;18.30;99.90;;;;;;4973103;28;20227;-58
2023/08/03 00:51:19;;;;;;;3.77;3.67;;;18.20;99.90;;;;;;4972611;28;20204;-58
2023/08/03 00:53:46;;;;;;;3.73;3.63;;;18.20;99.90;;;;;;4971698;28;20222;-58
2023/08/03 00:56:14;;;;;;;4.10;3.90;;;18.10;99.90;;;;;;4972896;28;20188;-58
2023/08/03 00:58:40;;;;;;;4.60;4.40;;;18.10;99.90;;;;;;4970314;28;20470;-58
2023/08/03 01:01:07;;;;;;;4.17;3.97;;;18.10;99.90;;;;;;4972701;28;20459;-58
2023/08/03 01:03:32;;;;;;;4.20;3.97;;;18.10;99.90;;;;;;4971707;28;20460;-58
2023/08/03 01:05:58;;;;;;;4.10;4.00;;;18.20;99.90;;;;;;4973486;28;20923;-58
2023/08/03 01:08:25;;;;;;;4.30;4.20;;;18.20;99.90;;;;;;4971263;28;20188;-59
2023/08/03 01:10:52;;;;;;;4.53;4.23;;;18.20;99.90;;;;;;4972237;28;20424;-58
2023/08/03 01:13:19;;;;;;;4.17;3.90;;;18.20;99.90;;;;;;4971649;28;20476;-58
2023/08/03 01:15:45;;;;;;;4.03;3.90;;;18.20;99.90;;;;;;4970922;28;20460;-58
2023/08/03 01:18:11;;;;;;;4.10;3.90;;;18.20;99.90;;;;;;4971713;28;20962;-58
2023/08/03 01:20:39;;;;;;;4.30;4.20;;;18.20;99.90;;;;;;4972293;28;20180;-58
2023/08/03 01:23:05;;;;;;;4.50;4.13;;;18.20;99.90;;;;;;4972088;28;20195;-58
2023/08/03 01:25:35;;;;;;;4.37;4.17;;;18.20;99.90;;;;;;4971275;28;20783;-58
2023/08/03 01:28:03;;;;;;;4.40;4.10;;;18.20;99.90;;;;;;4987172;28;20806;-58
2023/08/03 01:30:29;;;;;;;3.97;3.77;;;18.10;99.90;;;;;;4989920;28;20442;-58
2023/08/03 01:32:55;;;;;;;4.40;4.20;;;18.00;99.90;;;;;;4990375;28;20454;-58
2023/08/03 01:35:21;;;;;;;4.23;4.07;;;18.00;99.90;;;;;;4974851;28;20480;-58
2023/08/03 01:37:49;;;;;;;5.13;4.83;;;18.00;99.90;;;;;;4991235;28;20473;-58
2023/08/03 01:40:14;;;;;;;4.47;4.17;;;18.00;99.90;;;;;;4991986;28;20269;-58
2023/08/03 01:42:40;;;;;;;4.33;4.13;;;18.00;99.90;;;;;;4991820;28;20466;-58
2023/08/03 01:45:07;;;;;;;4.60;4.40;;;18.00;99.90;;;;;;4991188;28;20676;-58
2023/08/03 01:47:33;;;;;;;4.10;3.90;;;18.00;99.90;;;;;;4990967;28;20186;-58
2023/08/03 01:49:59;;;;;;;4.60;4.40;;;18.00;99.90;;;;;;4990452;28;20427;-58
2023/08/03 01:52:25;;;;;;;4.17;4.07;;;17.90;99.90;;;;;;4993364;28;20423;-58
2023/08/03 01:54:51;;;;;;;4.40;4.20;;;17.90;99.90;;;;;;4995765;28;20294;-58
2023/08/03 01:57:19;;;;;;;4.13;4.03;;;17.90;99.90;;;;;;4995705;28;20175;-58
2023/08/03 01:59:45;;;;;;;5.20;4.80;;;17.90;99.90;;;;;;4995668;28;20407;-58
2023/08/03 02:02:12;;;;;;;4.83;4.63;;;17.90;99.90;;;;;;4994994;28;20522;-58
2023/08/03 02:04:38;;;;;;;5.57;5.33;;;17.90;99.90;;;;;;4994013;28;20434;-58
2023/08/03 02:07:34;;;;;;;5.40;5.20;;;18.00;99.90;;;;;;4996529;28;20419;-58
2023/08/03 02:10:00;;;;;;;4.77;4.57;;;18.10;99.90;;;;;;4976425;28;20423;-58
2023/08/03 02:12:25;;;;;;;5.20;5.00;;;18.00;99.90;;;;;;4994861;28;20440;-59
2023/08/03 02:14:51;;;;;;;5.27;5.00;;;18.00;99.90;;;;;;4994572;28;20215;-58
2023/08/03 02:17:17;;;;;;;5.33;5.13;;;18.10;99.90;;;;;;4996404;28;20596;-58
2023/08/03 02:19:42;;;;;;;5.17;4.83;;;18.00;99.90;;;;;;4994947;28;20179;-58
2023/08/03 02:22:08;;;;;;;5.83;4.93;;;18.10;99.90;;;;;;4994344;28;20184;-58
2023/08/03 02:24:34;;;;;;;5.23;5.03;;;18.10;99.90;;;;;;4993926;28;20187;-58
2023/08/03 02:26:59;;;;;;;5.40;4.93;;;18.10;99.90;;;;;;4995846;28;20219;-58
2023/08/03 02:29:25;;;;;;;4.90;4.60;;;18.10;99.90;;;;;;4994787;28;20275;-58
2023/08/03 02:31:51;;;;;;;5.20;4.90;;;18.10;99.90;;;;;;4995195;28;20204;-58
2023/08/03 02:34:17;;;;;;;5.20;4.90;;;18.00;99.90;;;;;;4995731;28;20219;-58
2023/08/03 02:36:42;;;;;;;5.30;5.03;;;18.00;99.90;;;;;;4992906;28;20187;-58
2023/08/03 02:39:08;;;;;;;5.30;5.00;;;18.00;99.90;;;;;;4995950;28;20168;-58
2023/08/03 02:41:34;;;;;;;5.47;5.27;;;18.10;99.90;;;;;;4994041;28;20176;-58
2023/08/03 02:43:59;;;;;;;5.17;4.77;;;18.10;99.90;;;;;;4995755;28;20262;-58
2023/08/03 02:46:25;;;;;;;5.17;4.80;;;18.10;99.90;;;;;;4995477;28;20186;-58
2023/08/03 02:48:51;;;;;;;4.70;4.50;;;18.10;99.90;;;;;;4995021;28;20341;-58
2023/08/03 02:51:17;;;;;;;4.97;4.67;;;18.00;99.90;;;;;;4994773;28;20692;-58
2023/08/03 02:53:42;;;;;;;4.83;4.63;;;18.10;99.90;;;;;;4991972;28;20203;-58
2023/08/03 02:56:08;;;;;;;5.37;5.17;;;18.10;99.90;;;;;;4976380;28;20177;-58
2023/08/03 02:58:34;;;;;;;5.63;5.33;;;18.10;99.90;;;;;;4988190;28;20321;-58
2023/08/03 03:01:00;;;;;;;4.83;4.63;;;18.00;99.90;;;;;;4989594;28;20193;-58
2023/08/03 03:03:26;;;;;;;5.23;4.93;;;18.10;99.90;;;;;;4993112;28;20206;-58
2023/08/03 03:05:53;;;;;;;4.40;4.20;;;18.10;99.90;;;;;;4994630;28;20867;-58
2023/08/03 03:08:19;;;;;;;5.30;4.90;;;18.10;99.90;;;;;;4994229;28;20270;-58
2023/08/03 03:10:45;;;;;;;5.53;5.23;;;18.10;99.90;;;;;;4992304;28;20505;-58
2023/08/03 03:13:10;;;;;;;5.47;5.17;;;18.10;99.90;;;;;;4994258;28;20250;-58
2023/08/03 03:15:36;;;;;;;5.50;5.23;;;18.10;99.90;;;;;;4994235;28;20454;-58
2023/08/03 03:18:02;;;;;;;5.87;5.47;;;18.10;99.90;;;;;;4994783;28;20529;-58
2023/08/03 03:20:27;;;;;;;5.23;5.00;;;18.10;99.90;;;;;;4993754;28;20214;-58
2023/08/03 03:22:53;;;;;;;5.53;5.13;;;18.10;99.90;;;;;;4994396;28;20175;-58
2023/08/03 03:25:19;;;;;;;6.10;5.63;;;18.10;99.90;;;;;;4994052;28;20188;-58
2023/08/03 03:27:45;;;;;;;5.80;5.50;;;18.00;99.90;;;;;;4988246;28;20228;-58
2023/08/03 03:30:11;;;;;;;5.70;5.20;;;18.10;99.90;;;;;;4994479;28;20187;-58
2023/08/03 03:32:36;;;;;;;5.57;5.27;;;18.00;99.90;;;;;;4993262;28;20184;-59
2023/08/03 03:35:02;;;;;;;5.63;5.33;;;18.00;99.90;;;;;;4993516;28;20496;-58
2023/08/03 03:37:28;;;;;;;5.40;5.07;;;18.00;99.90;;;;;;4994800;28;20176;-59
2023/08/03 03:39:54;;;;;;;5.13;4.73;;;18.00;99.90;;;;;;4993055;28;20433;-58
2023/08/03 03:42:20;;;;;;;4.60;4.37;;;18.10;99.90;;;;;;4993773;28;20180;-58
2023/08/03 03:44:45;;;;;;;5.30;5.00;;;18.10;99.90;;;;;;4993740;28;20180;-58
2023/08/03 03:47:11;;;;;;;4.33;4.17;;;18.00;99.90;;;;;;4975139;28;20258;-58
2023/08/03 03:49:37;;;;;;;5.90;5.50;;;18.10;99.90;;;;;;4990835;28;20179;-59
2023/08/03 03:52:03;;;;;;;3.73;3.50;;;18.10;99.90;;;;;;4993750;28;20184;-58
2023/08/03 03:54:28;;;;;;;3.93;3.60;;;18.10;99.90;;;;;;4994239;28;20207;-58
2023/08/03 03:56:55;;;;;;;4.47;4.27;;;18.10;99.90;;;;;;4992730;28;20242;-58
2023/08/03 03:59:20;;;;;;;5.03;4.73;;;18.10;99.90;;;;;;4993558;28;20195;-58
2023/08/03 04:01:46;;;;;;;5.50;5.20;;;18.20;99.90;;;;;;4992701;28;20430;-58
2023/08/03 04:04:12;;;;;;;6.20;5.60;;;18.20;99.90;;;;;;4993167;28;20270;-58
2023/08/03 04:06:37;;;;;;;4.20;3.90;;;18.10;99.90;;;;;;4992601;28;20287;-58
2023/08/03 04:09:03;;;;;;;5.57;5.27;;;18.10;99.90;;;;;;4992905;28;20239;-59
2023/08/03 04:11:29;;;;;;;5.43;5.23;;;18.10;99.90;;;;;;4994332;28;20179;-58
2023/08/03 04:13:54;;;;;;;4.27;4.00;;;18.10;99.90;;;;;;4992459;28;20608;-59
2023/08/03 04:16:20;;;;;;;5.70;5.40;;;18.20;99.90;;;;;;4992177;28;20280;-58
2023/08/03 04:18:46;;;;;;;5.90;5.50;;;18.20;99.90;;;;;;4991939;28;20667;-58
2023/08/03 04:21:12;;;;;;;5.30;5.10;;;18.10;99.90;;;;;;4993054;28;20234;-58
2023/08/03 04:23:37;;;;;;;9.17;8.47;;;18.10;99.90;;;;;;4992334;28;20191;-59
2023/08/03 04:26:03;;;;;;;8.60;8.10;;;18.10;99.90;;;;;;4993288;28;20176;-58
2023/08/03 04:28:29;;;;;;;8.77;8.17;;;18.10;99.90;;;;;;4992684;28;20665;-58
2023/08/03 04:30:55;;;;;;;4.00;3.90;;;18.10;99.90;;;;;;4992054;28;20187;-59
2023/08/03 04:33:20;;;;;;;5.83;5.43;;;18.10;99.90;;;;;;4990540;28;20366;-59
2023/08/03 04:35:46;;;;;;;3.80;3.60;;;18.20;99.90;;;;;;4986600;28;20187;-59
2023/08/03 04:38:12;;;;;;;4.73;4.50;;;18.20;99.90;;;;;;4992756;28;20188;-58
2023/08/03 04:40:38;;;;;;;8.07;7.40;;;18.20;99.90;;;;;;4991564;28;20231;-59
2023/08/03 04:43:04;;;;;;;6.50;6.10;;;18.20;99.90;;;;;;4993673;28;20168;-59
2023/08/03 04:45:30;;;;;;;5.10;4.90;;;18.30;99.90;;;;;;4992966;28;20446;-58
2023/08/03 04:47:56;;;;;;;5.83;5.53;;;18.30;99.90;;;;;;4991672;28;20441;-58
2023/08/03 04:50:22;;;;;;;4.73;4.30;;;18.30;99.90;;;;;;4992564;28;20183;-58
2023/08/03 04:52:48;;;;;;;6.23;6.03;;;18.30;99.90;;;;;;4991338;28;20184;-58
2023/08/03 04:55:14;;;;;;;4.10;3.90;;;18.30;99.90;;;;;;4992362;28;20508;-58
2023/08/03 04:57:39;;;;;;;4.13;3.93;;;18.20;99.90;;;;;;4991394;28;20237;-59
2023/08/03 05:00:06;;;;;;;7.47;7.07;;;18.20;99.90;;;;;;4992775;28;20187;-58
2023/08/03 05:02:31;;;;;;;4.70;4.50;;;18.20;99.90;;;;;;4992310;28;20183;-58
2023/08/03 05:04:57;;;;;;;5.90;5.60;;;18.30;99.90;;;;;;4991038;28;20891;-58
2023/08/03 05:07:23;;;;;;;4.73;4.53;;;18.30;99.90;;;;;;4993139;28;20172;-58
2023/08/03 05:09:48;;;;;;;3.37;3.20;;;18.30;99.90;;;;;;4985464;28;20208;-58
2023/08/03 05:12:14;;;;;;;4.00;3.70;;;18.30;99.90;;;;;;4982538;28;20648;-58
2023/08/03 05:14:40;;;;;;;6.27;5.87;;;18.30;99.90;;;;;;4992216;28;20216;-59
2023/08/03 05:17:06;;;;;;;5.00;4.80;;;18.20;99.90;;;;;;4992933;28;20180;-58
2023/08/03 05:19:32;;;;;;;11.00;9.97;;;18.30;99.90;;;;;;4992135;28;20176;-58
2023/08/03 05:21:58;;;;;;;10.20;9.40;;;18.30;99.90;;;;;;4991687;28;20207;-58
2023/08/03 05:24:24;;;;;;;4.83;4.63;;;18.30;99.90;;;;;;4992073;28;20437;-58
2023/08/03 05:26:50;;;;;;;4.77;4.60;;;18.30;99.90;;;;;;4991701;28;20459;-58
2023/08/03 05:29:15;;;;;;;4.30;4.20;;;18.30;99.90;;;;;;4992473;28;20930;-58
2023/08/03 05:31:41;;;;;;;7.23;6.93;;;18.30;99.90;;;;;;4992136;28;20265;-58
2023/08/03 05:34:07;;;;;;;4.60;4.40;;;18.30;99.90;;;;;;4975316;28;20207;-58
2023/08/03 05:36:33;;;;;;;7.10;6.70;;;18.20;99.90;;;;;;4992868;28;20168;-58
2023/08/03 05:38:58;;;;;;;7.80;7.30;;;18.30;99.90;;;;;;4990910;28;20199;-58
2023/08/03 05:41:27;;;;;;;5.83;5.47;;;18.30;99.90;;;;;;4991639;28;20191;-58
2023/08/03 05:43:53;;;;;;;6.70;6.50;;;18.30;99.90;;;;;;4992014;28;20262;-59
2023/08/03 05:46:18;;;;;;;4.33;4.23;;;18.40;99.90;;;;;;4992136;28;20498;-59
2023/08/03 05:48:48;;;;;;;4.47;4.23;;;18.40;99.90;;;;;;4991946;28;20506;-59
2023/08/03 05:51:26;;;;;;;6.37;6.17;;;18.30;99.90;;;;;;4992483;28;20167;-58
2023/08/03 05:53:53;;;;;;;5.37;5.17;;;18.30;99.90;;;;;;4989959;28;20473;-58
2023/08/03 05:56:23;;;;;;;7.40;7.10;;;18.40;99.90;;;;;;4988673;28;20435;-58
2023/08/03 05:58:50;;;;;;;6.07;5.83;;;18.40;99.90;;;;;;4990498;28;20503;-58
2023/08/03 06:01:20;;;;;;;3.60;3.50;;;18.30;99.90;;;;;;4992511;28;20423;-58
2023/08/03 06:03:46;;;;;;;5.33;5.03;;;18.40;99.90;;;;;;4988614;28;20484;-58
2023/08/03 06:06:17;;;;;;;4.70;4.50;;;18.40;99.90;;;;;;4992851;28;20403;-58
2023/08/03 06:08:50;;;;;;;3.90;3.70;;;18.40;99.90;;;;;;4991369;28;20451;-58
2023/08/03 06:11:20;;;;;;;4.10;4.00;;;18.50;99.90;;;;;;4974117;28;20507;-58
2023/08/03 06:13:47;;;;;;;5.73;5.30;;;18.40;99.90;;;;;;4989372;28;20505;-58
2023/08/03 06:16:14;;;;;;;4.20;4.10;;;18.40;99.90;;;;;;4992527;28;20403;-58
2023/08/03 06:18:54;;;;;;;3.30;3.20;;;18.40;99.90;;;;;;4992018;28;20421;-59
2023/08/03 06:21:21;;;;;;;5.30;5.10;;;18.40;99.90;;;;;;4975130;28;20419;-58
2023/08/03 06:23:49;;;;;;;4.50;4.27;;;18.50;99.90;;;;;;4991550;28;20481;-58
2023/08/03 06:26:16;;;;;;;4.27;4.17;;;18.60;99.90;;;;;;4992496;28;20415;-58
2023/08/03 06:28:47;;;;;;;4.77;4.47;;;18.60;99.90;;;;;;4987867;28;20477;-58
2023/08/03 06:31:37;;;;;;;3.77;3.67;;;18.60;99.90;;;;;;4973491;28;20826;-58
2023/08/03 06:34:03;;;;;;;3.20;3.10;;;18.60;99.90;;;;;;4982049;28;20509;-58
2023/08/03 06:36:29;;;;;;;4.30;4.20;;;18.60;99.90;;;;;;4972506;28;20942;-58
2023/08/03 06:38:56;;;;;;;5.00;4.80;;;18.60;99.90;;;;;;4991546;28;20550;-58
2023/08/03 06:41:26;;;;;;;3.10;3.00;;;18.60;99.90;;;;;;4992520;28;20283;-58
2023/08/03 06:43:56;;;;;;;6.00;5.63;;;18.60;99.90;;;;;;4993936;28;20426;-58
2023/08/03 06:46:22;;;;;;;2.47;2.47;;;18.60;99.90;;;;;;4991937;28;20441;-58
2023/08/03 06:48:50;;;;;;;5.40;5.20;;;18.50;99.90;;;;;;4988032;28;20435;-58
2023/08/03 06:51:16;;;;;;;3.70;3.40;;;18.60;99.90;;;;;;4990285;28;20422;-58
2023/08/03 06:53:42;;;;;;;4.20;4.10;;;18.50;99.90;;;;;;4976096;28;20471;-60
2023/08/03 06:56:08;;;;;;;3.70;3.50;;;18.50;99.90;;;;;;4994727;28;20179;-60
2023/08/03 06:58:33;;;;;;;4.07;3.97;;;18.40;99.90;;;;;;4993739;28;20785;-60
2023/08/03 07:00:59;;;;;;;3.67;3.57;;;18.30;99.90;;;;;;4991333;28;20188;-60
2023/08/03 07:03:27;;;;;;;3.83;3.67;;;18.30;99.90;;;;;;4990420;28;20181;-60
2023/08/03 07:05:53;;;;;;;4.10;4.00;;;18.20;99.90;;;;;;4986997;28;20430;-60
2023/08/03 07:08:19;;;;;;;4.20;4.00;;;18.10;99.90;;;;;;4992549;28;20434;-60
2023/08/03 07:10:48;;;;;;;4.30;4.10;;;18.10;99.90;;;;;;4993915;28;20414;-60
2023/08/03 07:13:14;;;;;;;3.93;3.63;;;17.90;99.90;;;;;;4995486;28;20459;-60
2023/08/03 07:15:42;;;;;;;4.80;4.70;;;17.90;99.90;;;;;;4992625;28;20184;-60
2023/08/03 07:18:09;;;;;;;4.40;4.30;;;17.90;99.90;;;;;;4983720;28;20184;-60
2023/08/03 07:20:35;;;;;;;4.63;4.43;;;18.00;99.90;;;;;;4982417;28;20439;-60
2023/08/03 07:23:00;;;;;;;4.03;3.93;;;18.00;99.90;;;;;;4990926;28;20434;-60
2023/08/03 07:25:26;;;;;;;6.20;5.90;;;17.90;99.90;;;;;;4989597;28;20246;-60
2023/08/03 07:27:53;;;;;;;4.93;4.83;;;17.90;99.90;;;;;;4988550;28;20718;-60
2023/08/03 07:30:19;;;;;;;3.13;3.03;;;18.00;99.90;;;;;;4989325;28;20445;-60
2023/08/03 07:32:45;;;;;;;5.20;4.90;;;18.00;99.90;;;;;;4991982;28;20517;-60
2023/08/03 07:35:11;;;;;;;3.37;3.27;;;17.90;99.90;;;;;;4991015;28;20553;-60
2023/08/03 07:37:37;;;;;;;4.00;3.90;;;18.00;99.90;;;;;;4990340;28;20977;-60
2023/08/03 07:40:03;;;;;;;4.10;4.00;;;18.00;99.90;;;;;;4990740;28;20426;-60
2023/08/03 07:42:29;;;;;;;3.90;3.80;;;18.00;99.90;;;;;;4989135;28;20274;-60
2023/08/03 07:44:55;;;;;;;3.97;3.80;;;18.00;99.90;;;;;;4981338;28;20856;-60
2023/08/03 07:47:21;;;;;;;4.40;4.30;;;18.00;99.90;;;;;;4988280;28;20183;-60
2023/08/03 07:49:47;;;;;;;4.23;4.13;;;18.10;99.90;;;;;;4990205;28;20927;-60
2023/08/03 07:52:12;;;;;;;4.50;4.40;;;18.00;99.90;;;;;;4990184;28;20455;-60
2023/08/03 07:54:38;;;;;;;5.00;4.90;;;18.00;99.90;;;;;;4991922;28;20521;-59
2023/08/03 07:57:05;;;;;;;5.10;4.80;;;18.00;99.90;;;;;;4991393;28;20251;-59
2023/08/03 07:59:31;;;;;;;4.80;4.70;;;18.00;99.90;;;;;;4993040;28;20194;-60
2023/08/03 08:01:57;;;;;;;5.53;5.23;;;18.10;99.90;;;;;;4987613;28;20970;-59
2023/08/03 08:04:23;;;;;;;4.87;4.57;;;18.20;99.90;;;;;;4981006;28;20521;-59
2023/08/03 08:06:48;;;;;;;5.20;4.97;;;18.50;99.90;;;;;;4987345;28;20211;-59
2023/08/03 08:09:14;;;;;;;4.37;4.17;;;18.70;99.90;;;;;;4986762;28;20445;-59
2023/08/03 08:11:40;;;;;;;4.70;4.40;;;18.90;99.90;;;;;;4993842;28;20651;-59
2023/08/03 08:14:06;;;;;;;2.87;2.77;;;19.00;99.90;;;;;;4984386;28;20286;-59
2023/08/03 08:16:31;;;;;;;43.33;38.50;;;19.20;99.90;;;;;;4971594;28;20211;-60
2023/08/03 08:18:57;;;;;;;32.47;27.43;;;19.30;99.90;;;;;;4991855;28;20250;-60
2023/08/03 08:21:23;;;;;;;153.03;113.03;;;19.20;99.90;;;;;;4975166;28;21203;-68
2023/08/03 08:23:50;;;;;;;15.47;14.07;;;19.30;99.90;;;;;;4985114;28;20219;-68
2023/08/03 08:26:17;;;;;;;7.60;7.20;;;19.40;99.90;;;;;;4987518;28;20177;-67
2023/08/03 08:28:45;;;;;;;6.43;5.93;;;19.50;99.90;;;;;;4986930;28;20484;-67
2023/08/03 08:31:11;;;;;;;4.47;4.27;;;19.60;99.90;;;;;;4992202;28;20423;-67
2023/08/03 08:33:37;;;;;;;8.90;7.97;;;19.70;99.90;;;;;;4979720;28;20471;-67
2023/08/03 08:36:05;;;;;;;6.47;5.97;;;19.80;99.90;;;;;;4974723;28;20463;-68
2023/08/03 08:38:31;;;;;;;93.43;76.43;;;19.90;99.90;;;;;;4988555;28;20430;-68
2023/08/03 08:41:00;;;;;;;7.93;7.37;;;20.00;99.90;;;;;;4989426;28;20437;-68
2023/08/03 08:43:27;;;;;;;5.50;5.10;;;20.10;99.90;;;;;;4991771;28;20844;-70
2023/08/03 08:45:53;;;;;;;5.10;4.80;;;20.20;99.90;;;;;;4979038;28;20517;-70
2023/08/03 08:48:19;;;;;;;9.10;8.37;;;20.20;99.90;;;;;;4988996;28;20577;-70
2023/08/03 08:50:46;;;;;;;7.13;6.63;;;20.40;99.90;;;;;;4976007;28;20249;-69
2023/08/03 08:53:14;;;;;;;5.47;4.70;;;20.50;99.90;;;;;;4983798;28;20275;-68
2023/08/03 08:55:40;;;;;;;6.60;6.17;;;20.50;99.90;;;;;;4982310;28;21011;-69
2023/08/03 08:58:05;;;;;;;7.83;5.00;;;20.60;99.90;;;;;;4960850;28;20562;-67
2023/08/03 09:00:43;;;;;;;6.27;5.60;;;20.60;99.90;;;;;;4986722;28;20805;-68
2023/08/03 09:03:10;;;;;;;6.67;6.07;;;20.70;99.90;;;;;;4986934;28;20184;-68
2023/08/03 09:05:37;;;;;;;4.47;4.27;;;20.60;99.90;;;;;;4989454;28;20465;-69
2023/08/03 09:08:05;;;;;;;4.40;4.20;;;20.60;99.90;;;;;;4988059;28;20509;-70
2023/08/03 09:10:46;;;;;;;5.73;4.70;;;20.60;99.90;;;;;;4982686;28;20428;-69
2023/08/03 09:13:31;;;;;;;8.30;4.37;;;20.60;99.90;;;;;;4982442;28;20431;-68
2023/08/03 09:15:58;;;;;;;4.10;3.80;;;20.50;99.90;;;;;;4984000;28;20510;-68
2023/08/03 09:18:27;;;;;;;4.53;4.23;;;20.40;99.90;;;;;;4990823;28;20794;-69
2023/08/03 09:21:09;;;;;;;6.17;5.67;;;20.30;99.90;;;;;;4988238;28;20506;-69
2023/08/03 09:23:36;;;;;;;8.13;6.77;;;20.30;99.90;;;;;;4991004;28;20442;-69
2023/08/03 09:26:05;;;;;;;5.03;4.73;;;20.40;99.90;;;;;;4972202;28;20438;-68
2023/08/03 09:28:37;;;;;;;4.57;4.33;;;20.40;99.90;;;;;;4975237;28;21027;-68
2023/08/03 09:31:04;;;;;;;6.20;5.70;;;20.30;99.90;;;;;;4987583;28;20501;-70
2023/08/03 09:33:31;;;;;;;4.73;4.43;;;20.20;99.90;;;;;;4990987;28;20482;-66
2023/08/03 09:36:14;;;;;;;4.80;4.50;;;20.10;99.90;;;;;;4988833;28;20509;-66
2023/08/03 09:38:41;;;;;;;4.20;3.97;;;20.20;99.90;;;;;;4974429;28;20986;-66
2023/08/03 09:41:09;;;;;;;5.63;5.13;;;20.10;99.90;;;;;;4989636;28;20426;-67
2023/08/03 09:43:36;;;;;;;3.50;3.30;;;20.00;99.90;;;;;;4983083;28;20266;-66
2023/08/03 09:46:02;;;;;;;3.90;3.70;;;20.00;99.90;;;;;;4986298;28;20482;-66
2023/08/03 09:48:28;;;;;;;4.40;4.00;;;19.90;99.90;;;;;;4990942;28;20439;-67
2023/08/03 09:50:58;;;;;;;58.10;41.43;;;19.60;99.90;;;;;;4987937;28;20427;-65
2023/08/03 09:53:36;;;;;;;20.27;17.80;;;19.70;99.90;;;;;;4990214;28;20230;-67
2023/08/03 09:56:02;;;;;;;14.53;11.60;;;19.90;99.90;;;;;;4987826;28;20458;-67
2023/08/03 09:58:40;;;;;;;34.70;27.23;;;20.00;99.90;;;;;;4991081;28;20897;-67
2023/08/03 10:01:09;;;;;;;3.87;3.67;;;20.10;99.90;;;;;;4974196;28;20442;-65
2023/08/03 10:03:36;;;;;;;6.30;5.80;;;19.90;99.90;;;;;;4992274;28;20414;-66
2023/08/03 10:06:07;;;;;;;3.90;3.60;;;19.90;99.90;;;;;;4992344;28;20423;-66
2023/08/03 10:08:43;;;;;;;4.70;4.40;;;19.80;99.90;;;;;;4974785;28;20885;-66
2023/08/03 10:11:12;;;;;;;4.63;4.33;;;19.70;99.90;;;;;;4984507;28;20426;-66
2023/08/03 10:13:44;;;;;;;3.00;2.80;;;19.70;99.90;;;;;;4986450;28;20813;-66
2023/08/03 10:16:16;;;;;;;3.37;3.17;;;19.70;99.90;;;;;;4994228;28;20430;-66
2023/08/03 10:18:43;;;;;;;2.73;2.63;;;19.70;99.90;;;;;;4982492;28;20430;-66
2023/08/03 10:21:10;;;;;;;3.40;3.07;;;19.70;99.90;;;;;;4996149;28;20451;-66
2023/08/03 10:23:38;;;;;;;3.87;3.57;;;19.70;99.90;;;;;;4995826;28;20438;-66
2023/08/03 10:26:08;;;;;;;3.57;3.40;;;19.70;99.90;;;;;;4994981;28;20423;-65
2023/08/03 10:28:40;;;;;;;3.40;3.20;;;19.60;99.90;;;;;;4996372;28;20430;-66
2023/08/03 10:31:15;;;;;;;5.40;4.40;;;19.60;99.90;;;;;;4995296;28;20910;-66
2023/08/03 10:34:04;;;;;;;5.67;5.37;;;19.60;99.90;;;;;;4986860;28;20541;-66
2023/08/03 10:36:29;;;;;;;4.17;3.47;;;19.60;99.90;;;;;;4970002;28;20481;-65
2023/08/03 10:39:03;;;;;;;6.93;6.37;;;19.50;99.90;;;;;;4995921;28;20420;-64
2023/08/03 10:41:36;;;;;;;3.50;3.30;;;19.50;99.90;;;;;;4995427;28;20175;-66
2023/08/03 10:44:12;;;;;;;4.00;3.73;;;19.40;99.90;;;;;;4994846;28;20441;-67
2023/08/03 10:46:42;;;;;;;8.90;8.20;;;19.70;99.90;;;;;;4996249;28;20432;-71
2023/08/03 10:49:22;;;;;;;6.47;5.87;;;19.70;99.90;;;;;;4993053;28;20434;-68
2023/08/03 10:51:54;;;;;;;5.33;4.77;;;19.90;99.90;;;;;;4990544;28;20461;-68
2023/08/03 10:54:28;;;;;;;3.57;3.37;;;19.90;99.90;;;;;;4996290;28;20868;-66
2023/08/03 10:57:15;;;;;;;212.43;150.33;;;19.80;99.90;;;;;;4995534;28;20784;-67
2023/08/03 10:59:46;;;;;;;30.87;24.53;;;19.90;99.90;;;;;;4994169;28;20481;-69
2023/08/03 11:02:25;;;;;;;16.63;14.97;;;19.70;99.90;;;;;;4996014;28;20396;-69
2023/08/03 11:05:06;;;;;;;10.70;9.70;;;19.80;99.90;;;;;;4977692;28;20433;-69
2023/08/03 11:07:40;;;;;;;4.70;4.43;;;19.70;99.90;;;;;;4968603;28;20779;-69
2023/08/03 11:10:11;;;;;;;4.60;4.30;;;19.80;99.90;;;;;;4995348;28;20414;-69
2023/08/03 11:12:37;;;;;;;3.83;3.60;;;19.70;99.90;;;;;;4992563;28;20430;-69
2023/08/03 11:15:05;;;;;;;4.40;4.20;;;19.70;99.90;;;;;;4992749;28;20524;-69
2023/08/03 11:17:33;;;;;;;4.73;4.33;;;19.90;99.90;;;;;;4995744;28;20399;-69
2023/08/03 11:20:03;;;;;;;4.93;4.63;;;19.80;99.90;;;;;;4991789;28;20427;-68
2023/08/03 11:22:30;;;;;;;4.70;4.47;;;20.00;99.90;;;;;;4987815;28;20432;-69
2023/08/03 11:25:02;;;;;;;4.50;4.20;;;20.10;99.90;;;;;;4974882;28;20764;-69
2023/08/03 11:27:29;;;;;;;5.03;4.73;;;20.10;99.90;;;;;;4994807;28;20521;-69
2023/08/03 11:29:56;;;;;;;5.40;5.10;;;20.00;99.90;;;;;;4993939;28;20467;-68
2023/08/03 11:32:31;;;;;;;4.53;4.13;;;19.90;99.90;;;;;;4994653;28;20477;-69
2023/08/03 11:35:07;;;;;;;7.37;6.87;;;19.80;99.90;;;;;;4993986;28;20453;-68
2023/08/03 11:37:35;;;;;;;4.30;3.97;;;19.70;99.90;;;;;;4975776;28;20710;-69
2023/08/03 11:40:04;;;;;;;4.63;4.37;;;19.70;99.90;;;;;;4968558;28;20934;-68
2023/08/03 11:42:31;;;;;;;50.80;29.73;;;19.70;99.90;;;;;;4986219;28;20462;-68
2023/08/03 16:01:54;;;;;;;7.37;6.77;;;18.40;99.90;;;;;;5085158;27;20569;-61
2023/08/03 16:04:19;;;;;;;7.77;7.30;;;18.50;99.90;;;;;;5065613;28;20906;-61
2023/08/03 16:06:45;;;;;;;7.73;7.13;;;18.60;99.90;;;;;;5067296;28;20605;-61
2023/08/03 16:09:13;;;;;;;6.93;6.43;;;18.80;99.90;;;;;;5069047;28;20219;-61
2023/08/03 16:11:39;;;;;;;5.50;5.30;;;18.90;99.90;;;;;;5083852;28;20701;-61
2023/08/03 16:14:06;;;;;;;4.93;4.67;;;19.00;99.90;;;;;;5083199;28;20431;-62
2023/08/03 16:16:33;;;;;;;5.03;4.73;;;19.10;99.90;;;;;;5061840;28;20423;-61
2023/08/03 16:18:59;;;;;;;4.57;4.37;;;19.10;99.90;;;;;;5067458;28;20857;-62
2023/08/03 16:21:25;;;;;;;5.00;4.70;;;19.20;99.90;;;;;;5084698;28;20481;-62
2023/08/03 16:23:51;;;;;;;5.13;4.93;;;19.20;99.90;;;;;;5061157;28;20423;-61
2023/08/03 16:26:17;;;;;;;9.93;8.60;;;;;;;;;;5064890;28;20419;-60
2023/08/03 16:28:43;;;;;;;4.70;4.40;;;19.30;99.90;;;;;;5067907;28;20468;-61
2023/08/03 16:31:16;;;;;;;3.80;3.60;;;19.20;99.90;;;;;;5070005;28;20443;-61
2023/08/03 16:33:42;;;;;;;4.10;3.70;;;19.20;99.90;;;;;;5059843;28;20177;-61
2023/08/03 16:36:15;;;;;;;3.60;3.40;;;19.20;99.90;;;;;;5073187;28;20420;-61
2023/08/03 16:38:42;;;;;;;4.20;4.00;;;19.20;99.90;;;;;;5065513;28;20427;-62
2023/08/03 16:41:08;;;;;;;4.27;4.00;;;19.20;99.90;;;;;;5067001;28;20527;-62
2023/08/03 16:43:33;;;;;;;4.30;4.00;;;19.20;99.90;;;;;;5066208;28;20518;-61
2023/08/03 16:45:59;;;;;;;5.23;4.93;;;19.20;99.90;;;;;;5067479;28;20169;-61
2023/08/03 16:48:28;;;;;;;5.97;5.57;;;19.30;99.90;;;;;;5067661;28;20642;-61
2023/08/03 16:50:54;;;;;;;36.17;32.97;;;19.30;99.90;;;;;;5068542;28;20200;-61
2023/08/03 16:53:22;;;;;;;23.67;18.20;;;19.30;99.90;;;;;;5066821;28;20899;-61
2023/08/03 16:55:52;;;;;;;6.43;6.03;;;19.30;99.90;;;;;;5067860;28;20565;-61
2023/08/03 16:58:20;;;;;;;4.97;4.47;;;19.30;99.90;;;;;;5064520;28;20442;-62
2023/08/03 17:00:53;;;;;;;5.43;5.10;;;19.30;99.90;;;;;;5065997;28;20491;-62
2023/08/03 17:03:24;;;;;;;5.30;4.93;;;19.30;99.90;;;;;;5062007;28;20454;-62